Time;durP1;ratioP1;P1;durP2;ratioP2;P2;SDS_P1;SDS_P2;PMS_P1;PMS_P2;Temp;Humidity;BMP_temperature;BMP_pressure;BME280_temperature;BME280_humidity;BME280_pressure;Samples;Min_cycle;Max_cycle;Signal;HPM_P1;HPM_P2
2022/09/01 00:01:29;;;;;;;2.55;1.52;;;20.20;49.70;;;;;;4998000;28;20067;-86
2022/09/01 00:04:02;;;;;;;3.05;1.05;;;20.20;49.90;;;;;;5008354;28;20448;-86
2022/09/01 00:06:30;;;;;;;2.08;1.15;;;20.10;49.70;;;;;;5025986;28;20040;-86
2022/09/01 00:08:59;;;;;;;2.95;1.25;;;20.10;49.90;;;;;;5017904;28;20033;-89
2022/09/01 00:11:26;;;;;;;2.92;1.38;;;20.00;49.80;;;;;;5027140;28;20102;-85
2022/09/01 00:13:54;;;;;;;1.77;0.90;;;20.00;49.90;;;;;;5013280;28;20037;-87
2022/09/01 00:16:21;;;;;;;3.15;1.00;;;20.00;50.10;;;;;;5013233;28;20018;-85
2022/09/01 00:18:49;;;;;;;2.78;1.40;;;19.90;50.00;;;;;;5007392;28;20025;-85
2022/09/01 00:21:18;;;;;;;1.05;0.80;;;19.90;50.20;;;;;;5011481;28;20063;-89
2022/09/01 00:23:44;;;;;;;2.00;0.85;;;19.90;50.30;;;;;;5018760;28;20048;-86
2022/09/01 00:26:10;;;;;;;2.67;1.10;;;19.80;50.30;;;;;;5012058;28;20221;-84
2022/09/01 00:28:36;;;;;;;3.15;1.10;;;19.80;50.40;;;;;;5012801;28;20105;-86
2022/09/01 00:31:05;;;;;;;3.80;1.00;;;19.70;50.40;;;;;;4995695;28;20201;-86
2022/09/01 00:33:31;;;;;;;2.83;1.10;;;19.70;50.50;;;;;;5008406;28;20358;-86
2022/09/01 00:35:57;;;;;;;2.80;1.30;;;19.70;50.70;;;;;;4994984;28;20496;-86
2022/09/01 00:38:23;;;;;;;5.28;1.63;;;19.70;50.70;;;;;;4997578;28;20116;-85
2022/09/01 00:40:49;;;;;;;2.47;1.17;;;19.60;50.70;;;;;;5012407;28;20033;-88
2022/09/01 00:43:43;;;;;;;2.90;1.20;;;19.60;50.80;;;;;;5015356;28;20029;-88
2022/09/01 00:46:12;;;;;;;3.92;1.10;;;19.60;51.00;;;;;;5022603;28;20042;-87
2022/09/01 00:48:38;;;;;;;3.05;1.10;;;19.50;50.80;;;;;;4991845;28;20436;-87
2022/09/01 00:51:07;;;;;;;1.55;0.90;;;19.50;50.90;;;;;;5025490;28;20026;-87
2022/09/01 00:53:34;;;;;;;2.47;1.00;;;19.50;51.00;;;;;;4990952;28;20056;-87
2022/09/01 00:56:01;;;;;;;2.30;1.13;;;19.40;50.90;;;;;;4998785;28;20029;-87
2022/09/01 00:58:28;;;;;;;2.60;1.13;;;19.40;51.10;;;;;;5031768;28;20126;-87
2022/09/01 01:00:55;;;;;;;3.83;1.30;;;19.40;51.20;;;;;;5034787;28;20037;-87
2022/09/01 01:03:22;;;;;;;5.35;1.65;;;19.30;51.10;;;;;;5035580;28;20430;-86
2022/09/01 01:05:54;;;;;;;1.88;1.13;;;19.30;51.30;;;;;;5021945;28;20108;-88
2022/09/01 01:08:32;;;;;;;3.05;1.00;;;19.20;51.30;;;;;;5018143;28;20377;-86
2022/09/01 01:11:16;;;;;;;4.45;1.60;;;19.20;51.40;;;;;;5026887;28;20095;-86
2022/09/01 01:14:14;;;;;;;2.90;1.10;;;19.20;51.60;;;;;;5018495;28;20089;-87
2022/09/01 01:16:43;;;;;;;1.70;0.85;;;19.10;51.60;;;;;;5031377;28;20198;-86
2022/09/01 01:25:03;;;;;;;3.28;1.40;;;19.00;51.30;;;;;;5018669;28;19976;-85
2022/09/01 01:27:34;;;;;;;3.13;1.25;;;19.00;51.30;;;;;;4986856;28;20338;-87
2022/09/01 01:30:02;;;;;;;2.63;1.20;;;18.90;51.40;;;;;;5025170;28;20106;-87
2022/09/01 01:32:30;;;;;;;1.58;0.82;;;18.90;51.50;;;;;;5010497;28;20204;-86
2022/09/01 01:34:56;;;;;;;3.67;1.75;;;18.90;51.60;;;;;;4990756;28;20026;-87
2022/09/01 01:37:24;;;;;;;2.10;1.13;;;18.90;51.80;;;;;;5012914;28;20183;-87
2022/09/01 01:39:51;;;;;;;3.75;1.50;;;18.80;51.70;;;;;;4979926;28;20113;-86
2022/09/01 01:42:18;;;;;;;2.65;1.27;;;18.80;51.90;;;;;;4979532;28;20373;-87
2022/09/01 01:44:45;;;;;;;4.03;1.40;;;18.70;51.90;;;;;;5005575;28;20192;-88
2022/09/01 01:47:12;;;;;;;1.75;1.13;;;18.70;52.10;;;;;;5015357;28;20041;-88
2022/09/01 01:49:42;;;;;;;1.98;1.40;;;18.70;52.20;;;;;;5026385;28;20029;-88
2022/09/01 01:52:15;;;;;;;4.53;1.80;;;18.60;52.10;;;;;;5020804;28;20021;-88
2022/09/01 01:54:45;;;;;;;2.00;1.48;;;18.60;52.30;;;;;;5010724;28;20063;-88
2022/09/01 01:57:14;;;;;;;2.70;1.00;;;18.60;52.40;;;;;;5001125;28;20497;-86
2022/09/01 01:59:41;;;;;;;2.35;1.92;;;18.50;52.30;;;;;;5025745;28;20080;-86
2022/09/01 02:02:08;;;;;;;3.17;1.13;;;18.50;52.40;;;;;;5001900;28;20030;-86
2022/09/01 02:04:35;;;;;;;1.58;1.35;;;18.40;52.50;;;;;;5008655;28;20067;-87
2022/09/01 02:07:12;;;;;;;1.67;1.08;;;18.40;52.60;;;;;;5015100;28;20033;-87
2022/09/01 02:09:42;;;;;;;2.25;1.48;;;18.40;52.80;;;;;;5016322;28;20086;-87
2022/09/01 02:12:09;;;;;;;3.35;2.00;;;18.40;52.80;;;;;;4983238;28;20026;-87
2022/09/01 02:14:35;;;;;;;2.60;1.10;;;18.40;53.00;;;;;;4977095;28;20495;-86
2022/09/01 02:17:04;;;;;;;2.38;1.45;;;18.30;52.90;;;;;;5014908;28;20027;-87
2022/09/01 02:19:31;;;;;;;7.50;2.75;;;18.30;53.00;;;;;;5020389;28;20040;-87
2022/09/01 02:21:59;;;;;;;1.52;1.00;;;18.30;53.20;;;;;;5000276;28;20030;-87
2022/09/01 02:24:28;;;;;;;2.13;1.02;;;18.20;53.10;;;;;;5029272;28;20599;-88
2022/09/01 02:26:57;;;;;;;3.22;1.13;;;18.20;53.30;;;;;;5011448;28;20030;-86
2022/09/01 02:29:27;;;;;;;1.67;0.93;;;18.20;53.40;;;;;;5001420;28;20029;-87
2022/09/01 02:31:55;;;;;;;5.03;1.70;;;18.20;53.50;;;;;;5016703;28;20025;-87
2022/09/01 02:34:22;;;;;;;2.00;1.17;;;18.10;53.50;;;;;;5014434;28;20033;-85
2022/09/01 02:36:53;;;;;;;2.38;1.40;;;18.10;53.60;;;;;;5019046;28;20025;-87
2022/09/01 02:39:28;;;;;;;3.15;1.25;;;18.10;53.70;;;;;;5014339;28;20049;-86
2022/09/01 02:41:54;;;;;;;4.07;1.00;;;18.10;53.80;;;;;;5008934;28;20150;-87
2022/09/01 02:44:26;;;;;;;1.67;1.10;;;18.10;53.90;;;;;;5001867;28;20022;-87
2022/09/01 02:46:53;;;;;;;2.85;1.20;;;18.10;54.00;;;;;;5001757;28;20117;-86
2022/09/01 02:49:27;;;;;;;2.45;1.10;;;18.00;53.90;;;;;;5023723;28;20095;-87
2022/09/01 02:51:58;;;;;;;2.15;1.27;;;18.00;54.00;;;;;;5022346;28;21080;-85
2022/09/01 02:54:24;;;;;;;3.08;1.23;;;18.00;54.10;;;;;;5016303;28;20042;-87
2022/09/01 02:56:53;;;;;;;4.13;1.52;;;18.00;54.20;;;;;;5016684;28;20032;-87
2022/09/01 02:59:22;;;;;;;4.68;1.30;;;17.90;54.20;;;;;;4986565;28;20258;-86
2022/09/01 03:01:50;;;;;;;7.90;2.45;;;17.90;54.30;;;;;;5018340;28;20045;-88
2022/09/01 03:04:17;;;;;;;2.80;1.50;;;17.90;54.50;;;;;;5007050;28;20033;-88
2022/09/01 03:06:44;;;;;;;2.58;1.10;;;17.90;54.60;;;;;;5001306;28;20029;-86
2022/09/01 03:09:14;;;;;;;1.83;1.23;;;17.80;54.50;;;;;;4986560;28;20041;-87
2022/09/01 03:11:45;;;;;;;2.90;1.55;;;17.80;54.60;;;;;;5011800;28;20236;-87
2022/09/01 03:14:11;;;;;;;2.65;1.40;;;17.80;54.70;;;;;;5013360;28;20412;-88
2022/09/01 03:16:38;;;;;;;1.70;0.93;;;17.80;54.80;;;;;;5002251;28;20021;-85
2022/09/01 03:19:10;;;;;;;1.30;1.02;;;17.70;54.70;;;;;;5017909;28;20042;-87
2022/09/01 03:21:39;;;;;;;2.55;1.30;;;17.70;54.90;;;;;;4998641;28;20044;-86
2022/09/01 03:24:13;;;;;;;2.88;1.20;;;17.70;54.90;;;;;;5028581;28;20465;-87
2022/09/01 03:26:40;;;;;;;3.05;1.38;;;17.70;55.10;;;;;;5019357;28;20191;-86
2022/09/01 03:29:07;;;;;;;2.40;1.10;;;17.70;55.10;;;;;;5002210;28;20025;-85
2022/09/01 03:31:35;;;;;;;2.53;1.25;;;17.60;55.00;;;;;;5012758;28;20037;-84
2022/09/01 03:34:02;;;;;;;1.90;1.25;;;17.70;55.30;;;;;;5017519;28;20034;-84
2022/09/01 03:36:33;;;;;;;3.40;1.35;;;17.60;55.20;;;;;;5002665;28;20361;-85
2022/09/01 03:39:00;;;;;;;2.55;1.38;;;17.60;55.30;;;;;;5029622;28;20026;-86
2022/09/01 03:41:29;;;;;;;1.80;1.33;;;17.60;55.40;;;;;;5009497;28;20025;-86
2022/09/01 03:43:59;;;;;;;2.03;1.40;;;17.60;55.50;;;;;;4970324;28;20307;-85
2022/09/01 03:46:32;;;;;;;1.50;0.93;;;17.60;55.60;;;;;;5028410;28;20060;-87
2022/09/01 03:49:02;;;;;;;4.90;2.00;;;17.60;55.60;;;;;;4994568;28;20044;-86
2022/09/01 03:51:29;;;;;;;2.53;1.33;;;17.60;55.70;;;;;;4995049;28;20031;-86
2022/09/01 03:53:59;;;;;;;4.55;1.50;;;17.60;55.80;;;;;;5000859;28;20144;-88
2022/09/01 03:56:28;;;;;;;1.70;1.20;;;17.60;55.90;;;;;;4983530;28;20539;-87
2022/09/01 03:58:57;;;;;;;3.33;1.20;;;17.60;56.00;;;;;;4981540;28;20021;-88
2022/09/01 04:01:28;;;;;;;2.35;1.15;;;17.60;56.10;;;;;;5007434;28;20113;-86
2022/09/01 04:03:56;;;;;;;4.43;1.30;;;17.60;56.30;;;;;;5013366;28;20062;-87
2022/09/01 04:06:25;;;;;;;3.30;2.28;;;17.60;56.10;;;;;;5008974;28;20033;-87
2022/09/01 04:09:01;;;;;;;3.75;1.50;;;17.60;56.20;;;;;;5002827;28;20112;-86
2022/09/01 04:11:31;;;;;;;5.88;1.65;;;17.60;56.90;;;;;;4996168;28;20543;-88
2022/09/01 04:13:57;;;;;;;2.83;1.70;;;17.60;56.40;;;;;;5020244;28;20049;-87
2022/09/01 04:19:25;;;;;;;4.00;1.45;;;17.50;56.50;;;;;;5021574;28;20119;-87
2022/09/01 04:21:59;;;;;;;2.55;1.52;;;17.50;56.50;;;;;;4986418;28;20509;-87
2022/09/01 04:24:32;;;;;;;2.33;1.67;;;17.50;56.60;;;;;;5002278;28;20044;-86
2022/09/01 04:27:01;;;;;;;7.05;1.88;;;17.50;56.60;;;;;;5013544;28;20117;-87
2022/09/01 04:29:28;;;;;;;4.93;1.70;;;17.50;56.70;;;;;;5011929;28;20071;-85
2022/09/01 04:32:00;;;;;;;3.40;2.47;;;17.50;56.70;;;;;;5011250;28;20029;-86
2022/09/01 04:34:35;;;;;;;4.00;1.92;;;17.50;56.80;;;;;;4996064;28;20131;-84
2022/09/01 04:37:11;;;;;;;2.67;1.40;;;17.50;56.90;;;;;;5024285;28;20033;-87
2022/09/01 04:39:47;;;;;;;4.82;2.30;;;17.40;56.90;;;;;;5014344;28;20049;-85
2022/09/01 04:42:15;;;;;;;4.10;2.05;;;17.50;57.10;;;;;;4994207;28;20318;-86
2022/09/01 04:44:45;;;;;;;4.32;1.50;;;17.50;57.30;;;;;;4980318;28;20041;-84
2022/09/01 04:47:15;;;;;;;3.15;2.08;;;17.50;57.20;;;;;;5012353;28;20049;-88
2022/09/01 04:49:49;;;;;;;4.65;1.98;;;17.50;57.30;;;;;;4992419;28;20045;-85
2022/09/01 04:52:17;;;;;;;3.97;1.73;;;17.50;57.30;;;;;;5007210;28;20032;-86
2022/09/01 04:54:43;;;;;;;3.38;2.30;;;17.50;57.30;;;;;;5009370;28;20041;-86
2022/09/01 04:57:10;;;;;;;1.52;1.25;;;17.50;57.50;;;;;;4983666;28;20022;-85
2022/09/01 04:59:36;;;;;;;3.28;1.33;;;17.50;57.50;;;;;;5006052;28;20048;-86
2022/09/01 05:02:06;;;;;;;6.28;2.92;;;17.50;57.60;;;;;;5006356;28;20448;-86
2022/09/01 05:04:32;;;;;;;2.20;1.52;;;17.50;57.60;;;;;;5012152;28;20052;-86
2022/09/01 05:07:01;;;;;;;2.17;1.40;;;17.50;57.70;;;;;;4977394;28;20030;-86
2022/09/01 05:09:37;;;;;;;;;;;17.50;57.70;;;;;;4993110;28;20087;-87
2022/09/01 05:12:11;;;;;;;3.17;1.73;;;17.50;57.50;;;;;;4991637;28;19917;-86
2022/09/01 05:14:43;;;;;;;3.17;2.03;;;17.50;57.30;;;;;;4997638;28;20048;-90
2022/09/01 05:17:11;;;;;;;3.72;1.70;;;17.50;57.40;;;;;;5032539;28;20025;-87
2022/09/01 05:19:46;;;;;;;3.90;1.65;;;17.50;57.50;;;;;;4997180;28;20032;-87
2022/09/01 05:22:20;;;;;;;3.33;1.50;;;17.60;57.80;;;;;;5025564;28;20106;-87
2022/09/01 05:24:55;;;;;;;4.10;1.88;;;17.60;57.80;;;;;;5009618;28;20498;-89
2022/09/01 05:27:21;;;;;;;4.70;2.08;;;17.50;57.70;;;;;;4987440;28;20336;-90
2022/09/01 05:29:48;;;;;;;3.83;2.03;;;17.50;57.80;;;;;;5002198;28;20040;-90
2022/09/01 05:32:14;;;;;;;5.20;2.00;;;17.50;57.90;;;;;;5001345;28;20095;-89
2022/09/01 05:34:42;;;;;;;4.78;2.25;;;17.50;58.00;;;;;;5011608;28;20041;-87
2022/09/01 05:37:11;;;;;;;2.85;1.88;;;17.50;58.00;;;;;;5003022;28;20043;-89
2022/09/01 05:39:38;;;;;;;2.63;1.65;;;17.50;58.10;;;;;;4968886;28;20335;-86
2022/09/01 05:42:07;;;;;;;4.03;2.22;;;17.50;58.10;;;;;;5001699;28;20055;-87
2022/09/01 05:44:35;;;;;;;4.10;1.60;;;17.50;58.20;;;;;;5020935;28;20422;-85
2022/09/01 05:47:04;;;;;;;2.50;1.65;;;17.50;58.20;;;;;;5019410;28;20057;-85
2022/09/01 05:49:31;;;;;;;6.70;2.13;;;17.50;58.30;;;;;;5013985;28;20033;-83
2022/09/01 05:51:59;;;;;;;4.22;2.03;;;17.50;58.30;;;;;;5007870;28;20027;-81
2022/09/01 05:54:27;;;;;;;5.35;2.10;;;17.50;58.40;;;;;;4999736;28;20030;-84
2022/09/01 05:57:00;;;;;;;3.67;1.73;;;17.60;58.70;;;;;;5000692;28;20037;-82
2022/09/01 05:59:30;;;;;;;5.30;2.30;;;17.60;58.60;;;;;;5012756;28;20025;-84
2022/09/01 06:02:07;;;;;;;3.08;1.55;;;17.60;58.70;;;;;;5008121;28;20033;-83
2022/09/01 06:04:39;;;;;;;2.92;1.60;;;17.60;58.70;;;;;;4998883;28;20029;-84
2022/09/01 06:07:13;;;;;;;3.50;1.65;;;17.60;58.70;;;;;;5011951;28;20026;-86
2022/09/01 06:09:44;;;;;;;4.10;2.17;;;17.70;58.90;;;;;;5012154;28;20037;-86
2022/09/01 06:12:16;;;;;;;2.90;1.50;;;17.60;58.70;;;;;;5019595;28;20338;-85
2022/09/01 06:14:44;;;;;;;3.00;1.80;;;17.70;58.90;;;;;;4999165;28;20092;-85
2022/09/01 06:17:10;;;;;;;4.80;2.05;;;17.70;58.90;;;;;;4998903;28;20181;-86
2022/09/01 06:19:38;;;;;;;2.60;1.70;;;17.70;58.90;;;;;;5005061;28;20030;-86
2022/09/01 06:22:05;;;;;;;3.78;1.92;;;17.80;59.10;;;;;;4980273;28;20396;-83
2022/09/01 06:24:31;;;;;;;3.05;1.70;;;17.80;59.10;;;;;;4981845;28;20038;-85
2022/09/01 06:26:58;;;;;;;3.15;1.80;;;17.80;59.10;;;;;;5012795;28;20146;-85
2022/09/01 06:29:24;;;;;;;2.72;1.80;;;17.80;59.10;;;;;;4998785;28;20025;-86
2022/09/01 06:31:51;;;;;;;3.22;2.22;;;17.90;59.30;;;;;;5018280;28;20080;-87
2022/09/01 06:34:19;;;;;;;5.88;1.92;;;17.90;59.30;;;;;;4999603;28;20136;-84
2022/09/01 06:36:48;;;;;;;3.22;1.75;;;18.00;59.50;;;;;;4995478;28;20049;-91
2022/09/01 06:39:21;;;;;;;3.03;2.05;;;18.00;59.60;;;;;;5016580;28;20049;-89
2022/09/01 06:41:51;;;;;;;6.57;2.33;;;18.10;60.40;;;;;;4998042;28;20044;-89
2022/09/01 06:44:21;;;;;;;6.70;3.17;;;18.10;59.90;;;;;;5018668;28;20034;-90
2022/09/01 06:46:53;;;;;;;6.30;2.70;;;18.10;60.00;;;;;;5024030;28;20048;-87
2022/09/01 06:49:22;;;;;;;3.25;2.20;;;18.20;60.10;;;;;;4995280;28;20036;-87
2022/09/01 06:51:51;;;;;;;8.90;2.22;;;18.20;60.20;;;;;;4996693;28;20334;-86
2022/09/01 06:54:22;;;;;;;4.45;1.70;;;18.30;60.40;;;;;;5000773;28;20127;-88
2022/09/01 06:56:48;;;;;;;6.50;2.20;;;18.30;60.40;;;;;;5015044;28;20037;-83
2022/09/01 06:59:14;;;;;;;8.77;3.55;;;18.40;60.50;;;;;;5015455;28;20029;-85
2022/09/01 07:01:47;;;;;;;5.18;1.90;;;18.60;60.80;;;;;;4997034;28;20033;-86
2022/09/01 07:04:18;;;;;;;5.80;2.97;;;18.70;60.80;;;;;;4998378;28;20392;-85
2022/09/01 07:06:51;;;;;;;4.00;2.10;;;18.80;61.10;;;;;;5013817;28;20067;-85
2022/09/01 07:09:17;;;;;;;5.63;2.58;;;18.90;61.30;;;;;;5027922;28;20026;-86
2022/09/01 07:12:02;;;;;;;5.05;1.60;;;19.10;61.70;;;;;;5011698;28;20033;-83
2022/09/01 07:14:29;;;;;;;6.78;1.50;;;19.20;61.60;;;;;;5012586;28;20033;-87
2022/09/01 07:16:57;;;;;;;6.30;1.70;;;19.30;61.60;;;;;;5006860;28;20086;-85
2022/09/01 07:19:24;;;;;;;6.97;2.30;;;19.50;61.80;;;;;;5014662;28;20037;-85
2022/09/01 07:21:55;;;;;;;4.28;2.05;;;19.60;61.80;;;;;;4989230;28;20033;-84
2022/09/01 07:24:21;;;;;;;3.03;1.92;;;19.70;61.70;;;;;;4995757;28;20349;-85
2022/09/01 07:27:17;;;;;;;4.30;1.85;;;19.90;61.90;;;;;;4993073;28;20049;-82
2022/09/01 07:29:43;;;;;;;6.43;2.00;;;20.00;61.70;;;;;;5012737;28;20109;-81
2022/09/01 07:32:10;;;;;;;4.50;2.10;;;20.10;61.60;;;;;;5010173;28;20038;-82
2022/09/01 07:34:36;;;;;;;3.85;2.30;;;20.10;61.60;;;;;;5016650;28;20037;-82
2022/09/01 07:37:04;;;;;;;4.38;2.83;;;20.20;61.60;;;;;;4999851;28;20523;-83
2022/09/01 07:39:30;;;;;;;9.02;2.72;;;20.20;61.60;;;;;;4999817;28;20040;-84
2022/09/01 07:42:17;;;;;;;6.20;2.35;;;20.30;61.70;;;;;;5000682;28;20116;-83
2022/09/01 07:45:08;;;;;;;4.38;1.90;;;20.30;61.60;;;;;;5009591;28;20032;-83
2022/09/01 07:47:43;;;;;;;6.85;1.63;;;20.40;61.70;;;;;;5008520;28;20041;-80
2022/09/01 07:50:11;;;;;;;7.43;2.10;;;20.60;61.70;;;;;;5021810;28;20029;-82
2022/09/01 07:52:42;;;;;;;5.70;2.33;;;20.60;61.50;;;;;;4996605;28;20028;-81
2022/09/01 07:55:14;;;;;;;6.18;1.88;;;20.70;61.50;;;;;;4996021;28;20044;-82
2022/09/01 07:57:42;;;;;;;6.13;2.88;;;20.80;61.50;;;;;;4989806;28;20026;-88
2022/09/01 08:00:15;;;;;;;13.60;3.70;;;20.80;61.40;;;;;;4995435;28;20022;-91
2022/09/01 08:02:50;;;;;;;4.40;2.33;;;20.90;61.50;;;;;;5007066;28;20025;-82
2022/09/01 08:05:25;;;;;;;6.82;2.22;;;20.90;61.30;;;;;;4996386;28;20040;-84
2022/09/01 08:07:51;;;;;;;6.70;2.40;;;21.00;61.40;;;;;;4997379;28;20033;-83
2022/09/01 08:10:18;;;;;;;5.70;2.47;;;21.10;61.50;;;;;;4996677;28;20052;-85
2022/09/01 08:12:44;;;;;;;5.43;2.03;;;21.10;61.30;;;;;;5018012;28;20033;-87
2022/09/01 08:15:11;;;;;;;6.47;2.72;;;21.20;61.30;;;;;;4996432;28;20424;-86
2022/09/01 08:17:38;;;;;;;6.20;1.77;;;21.30;61.30;;;;;;4999877;28;20029;-83
2022/09/01 08:20:09;;;;;;;5.80;1.90;;;21.50;61.50;;;;;;5010621;28;20036;-83
2022/09/01 08:23:07;;;;;;;5.63;2.70;;;21.60;61.50;;;;;;4993048;28;20025;-81
2022/09/01 08:25:36;;;;;;;4.43;1.58;;;21.80;61.40;;;;;;5027506;28;20136;-83
2022/09/01 08:28:04;;;;;;;3.33;2.28;;;21.90;61.20;;;;;;4994796;28;20036;-83
2022/09/01 08:30:34;;;;;;;6.97;3.22;;;22.00;61.00;;;;;;4993934;28;20066;-82
2022/09/01 08:33:01;;;;;;;5.18;1.85;;;22.10;60.90;;;;;;5010045;28;20030;-83
2022/09/01 08:35:28;;;;;;;5.15;2.25;;;22.30;60.80;;;;;;5013107;28;20041;-83
2022/09/01 08:37:57;;;;;;;5.18;1.95;;;22.40;60.70;;;;;;5012898;28;20029;-79
2022/09/01 08:40:25;;;;;;;5.32;2.10;;;22.50;60.50;;;;;;4996736;28;20246;-84
2022/09/01 08:43:34;;;;;;;7.03;1.95;;;22.70;60.40;;;;;;5014372;28;20017;-83
2022/09/01 08:46:12;;;;;;;4.40;1.60;;;22.80;60.10;;;;;;5004535;28;20136;-80
2022/09/01 08:48:47;;;;;;;2.58;1.60;;;22.90;60.00;;;;;;4993248;28;20033;-80
2022/09/01 08:51:24;;;;;;;4.07;1.90;;;23.00;59.90;;;;;;4981416;28;20511;-81
2022/09/01 08:54:02;;;;;;;4.72;1.75;;;23.10;59.80;;;;;;5021044;28;20040;-81
2022/09/01 08:56:28;;;;;;;3.88;1.80;;;23.20;59.80;;;;;;5017018;28;20397;-80
2022/09/01 08:58:57;;;;;;;5.25;1.50;;;23.20;59.50;;;;;;4998518;28;20098;-82
2022/09/01 09:01:29;;;;;;;4.70;1.65;;;23.30;59.40;;;;;;5015240;28;20087;-80
2022/09/01 09:04:08;;;;;;;5.65;1.60;;;23.30;59.20;;;;;;4997278;28;20047;-83
2022/09/01 09:06:53;;;;;;;6.05;1.42;;;23.40;59.20;;;;;;5007429;28;20188;-79
2022/09/01 09:09:19;;;;;;;4.65;1.58;;;23.50;58.90;;;;;;5011762;28;20060;-80
2022/09/01 09:11:50;;;;;;;4.78;1.60;;;23.60;59.00;;;;;;5014662;28;20094;-82
2022/09/01 09:14:42;;;;;;;5.10;1.77;;;23.70;58.90;;;;;;5011447;28;20034;-81
2022/09/01 09:17:10;;;;;;;8.23;2.65;;;23.80;58.60;;;;;;5011188;28;20029;-80
2022/09/01 09:19:40;;;;;;;6.57;2.47;;;23.90;58.50;;;;;;4997769;28;20386;-85
2022/09/01 09:22:17;;;;;;;4.68;1.50;;;23.90;58.30;;;;;;5011448;28;20053;-82
2022/09/01 09:24:51;;;;;;;7.18;1.80;;;24.00;58.30;;;;;;5024648;28;20033;-83
2022/09/01 09:27:22;;;;;;;5.10;1.90;;;24.00;58.20;;;;;;5018795;28;20030;-83
2022/09/01 09:29:54;;;;;;;5.90;1.70;;;24.10;58.10;;;;;;5026283;28;20030;-85
2022/09/01 09:32:23;;;;;;;3.50;1.90;;;24.20;58.10;;;;;;5015292;28;20071;-84
2022/09/01 09:34:50;;;;;;;8.80;2.45;;;24.30;58.00;;;;;;5011619;28;20049;-81
2022/09/01 09:37:30;;;;;;;4.80;2.05;;;24.40;57.90;;;;;;5001080;28;20169;-83
2022/09/01 09:40:10;;;;;;;3.33;1.70;;;24.60;57.90;;;;;;5014467;28;20022;-83
2022/09/01 09:42:38;;;;;;;5.85;3.10;;;24.70;57.80;;;;;;5008755;28;20092;-82
2022/09/01 09:45:23;;;;;;;4.63;1.80;;;24.70;57.60;;;;;;5011181;28;20046;-83
2022/09/01 09:47:50;;;;;;;6.40;1.65;;;24.80;57.50;;;;;;5013267;28;20186;-83
2022/09/01 09:50:37;;;;;;;4.88;1.92;;;24.90;57.60;;;;;;5004337;28;20080;-84
2022/09/01 09:53:10;;;;;;;4.00;2.00;;;25.00;57.50;;;;;;5024896;28;20112;-85
2022/09/01 09:55:52;;;;;;;5.70;2.38;;;25.10;57.20;;;;;;5036133;28;20105;-83
2022/09/01 09:58:25;;;;;;;7.03;1.70;;;25.20;57.00;;;;;;5037690;28;20073;-83
2022/09/01 10:01:06;;;;;;;4.63;2.08;;;25.30;56.80;;;;;;5028699;28;20132;-83
2022/09/01 10:03:43;;;;;;;4.97;1.75;;;25.40;56.60;;;;;;5032017;28;20025;-84
2022/09/01 10:06:29;;;;;;;5.50;1.55;;;25.50;56.40;;;;;;5027971;28;20037;-89
2022/09/01 10:08:57;;;;;;;7.97;1.77;;;25.60;56.10;;;;;;5008076;28;20370;-89
2022/09/01 10:11:42;;;;;;;3.80;1.70;;;25.70;55.90;;;;;;5012694;28;20034;-89
2022/09/01 10:14:15;;;;;;;2.90;1.50;;;25.70;55.20;;;;;;5009516;28;20099;-90
2022/09/01 10:16:43;;;;;;;6.28;1.85;;;25.60;55.20;;;;;;5009031;28;20384;-83
2022/09/01 10:19:12;;;;;;;5.20;1.50;;;25.60;55.20;;;;;;5013046;28;20314;-96
2022/09/01 10:21:41;;;;;;;6.18;1.98;;;25.60;55.20;;;;;;5026324;28;20448;-90
2022/09/01 10:24:20;;;;;;;4.45;1.70;;;25.70;55.20;;;;;;5024309;28;20033;-93
2022/09/01 10:26:53;;;;;;;5.22;1.73;;;25.80;54.90;;;;;;5026118;28;20017;-95
2022/09/01 10:29:28;;;;;;;4.15;1.70;;;26.00;54.80;;;;;;4998882;28;20072;-89
2022/09/01 10:31:55;;;;;;;4.85;1.63;;;26.20;54.60;;;;;;5014056;28;20017;-90
2022/09/01 10:34:22;;;;;;;5.43;2.05;;;26.20;54.30;;;;;;5011414;28;20040;-91
2022/09/01 10:36:50;;;;;;;4.13;1.33;;;26.40;54.30;;;;;;5027903;28;20036;-86
2022/09/01 10:39:18;;;;;;;5.15;1.80;;;26.60;53.70;;;;;;5024775;28;20048;-89
2022/09/01 10:41:50;;;;;;;7.50;2.08;;;26.60;53.10;;;;;;5028107;28;20027;-90
2022/09/01 10:44:21;;;;;;;5.57;2.13;;;26.60;52.80;;;;;;5030171;28;20037;-86
2022/09/01 10:46:48;;;;;;;4.53;1.73;;;26.50;52.50;;;;;;5024327;28;20371;-87
2022/09/01 10:49:43;;;;;;;3.72;1.35;;;26.40;52.40;;;;;;4999094;28;20051;-89
2022/09/01 10:52:09;;;;;;;3.92;1.30;;;26.30;52.00;;;;;;5003782;28;20030;-85
2022/09/01 10:54:38;;;;;;;4.88;1.40;;;26.20;52.40;;;;;;5007670;28;20051;-78
2022/09/01 10:57:38;;;;;;;3.53;1.20;;;26.20;52.20;;;;;;5017763;28;20494;-80
2022/09/01 11:00:22;;;;;;;3.20;1.63;;;26.20;51.70;;;;;;5028726;28;20151;-81
2022/09/01 11:03:10;;;;;;;5.80;1.40;;;26.20;51.50;;;;;;5000771;28;20473;-81
2022/09/01 11:05:59;;;;;;;8.73;1.40;;;26.20;51.50;;;;;;5017566;28;20272;-81
2022/09/01 11:08:30;;;;;;;7.03;1.30;;;26.20;51.30;;;;;;4993112;28;20021;-82
2022/09/01 11:11:05;;;;;;;7.53;1.38;;;26.20;51.40;;;;;;5017035;28;20025;-79
2022/09/01 11:13:42;;;;;;;4.72;1.50;;;26.20;51.20;;;;;;5017837;28;20406;-82
2022/09/01 11:16:27;;;;;;;6.88;1.80;;;26.20;51.10;;;;;;4993407;28;20397;-83
2022/09/01 11:18:54;;;;;;;3.90;1.20;;;26.20;50.70;;;;;;5019404;28;20033;-82
2022/09/01 11:21:27;;;;;;;3.63;1.20;;;26.20;50.90;;;;;;5013201;28;20521;-89
2022/09/01 11:24:33;;;;;;;2.80;0.90;;;26.30;50.90;;;;;;4998420;28;20026;-88
2022/09/01 11:26:59;;;;;;;8.10;1.63;;;26.30;50.70;;;;;;5018942;28;20033;-85
2022/09/01 11:29:51;;;;;;;5.03;1.67;;;26.40;50.70;;;;;;5023263;28;20100;-86
2022/09/01 11:32:20;;;;;;;7.45;1.42;;;26.40;50.10;;;;;;5015904;28;20319;-84
2022/09/01 11:34:49;;;;;;;6.43;1.20;;;26.30;50.30;;;;;;4996238;28;20091;-85
2022/09/01 11:37:19;;;;;;;4.53;1.33;;;26.20;50.20;;;;;;5016618;28;20167;-89
2022/09/01 11:39:48;;;;;;;4.30;1.80;;;26.20;50.30;;;;;;4998020;28;20495;-89
2022/09/01 11:42:20;;;;;;;4.63;1.27;;;26.10;50.30;;;;;;5007965;28;20111;-88
2022/09/01 11:45:02;;;;;;;4.35;1.13;;;26.20;50.40;;;;;;5010515;28;20057;-88
2022/09/01 11:47:37;;;;;;;4.10;1.45;;;26.30;50.90;;;;;;5023110;28;20049;-89
2022/09/01 11:50:18;;;;;;;3.28;0.90;;;26.50;50.00;;;;;;5026217;28;20481;-90
2022/09/01 11:52:58;;;;;;;2.67;1.20;;;26.70;50.00;;;;;;5003975;28;20017;-89
2022/09/01 11:55:40;;;;;;;4.25;1.60;;;26.90;49.60;;;;;;5015167;28;20181;-90
2022/09/01 11:58:27;;;;;;;4.05;1.58;;;27.00;49.20;;;;;;5016371;28;20017;-90
2022/09/01 12:01:09;;;;;;;3.40;1.73;;;27.20;49.20;;;;;;4985221;28;20036;-87
2022/09/01 12:03:37;;;;;;;2.33;1.52;;;27.50;49.00;;;;;;4998930;28;20017;-94
2022/09/01 12:06:06;;;;;;;5.03;1.67;;;27.70;48.70;;;;;;4977481;28;20489;-84
2022/09/01 12:08:36;;;;;;;7.68;1.30;;;27.80;48.90;;;;;;4994276;28;20025;-84
2022/09/01 12:11:06;;;;;;;1.60;1.08;;;28.00;48.30;;;;;;5011775;28;20111;-87
2022/09/01 12:13:32;;;;;;;5.28;1.45;;;28.10;48.00;;;;;;4992796;28;20067;-88
2022/09/01 12:16:02;;;;;;;3.28;1.23;;;28.20;47.80;;;;;;4992767;28;20029;-87
2022/09/01 12:18:36;;;;;;;3.20;1.40;;;28.40;47.70;;;;;;5020480;28;20391;-86
2022/09/01 12:21:06;;;;;;;2.97;1.50;;;28.50;47.50;;;;;;4991666;28;20105;-85
2022/09/01 12:23:35;;;;;;;5.80;1.88;;;28.60;47.30;;;;;;4991403;28;20044;-87
2022/09/01 12:26:15;;;;;;;6.60;2.15;;;28.70;47.00;;;;;;5011087;28;20036;-82
2022/09/01 12:28:45;;;;;;;3.20;1.30;;;28.80;46.60;;;;;;5009896;28;20094;-86
2022/09/01 12:31:17;;;;;;;3.10;1.30;;;28.90;46.10;;;;;;4991201;28;20397;-87
2022/09/01 12:33:45;;;;;;;1.80;1.05;;;29.00;46.00;;;;;;5007039;28;20029;-82
2022/09/01 12:36:35;;;;;;;2.22;1.00;;;29.00;45.80;;;;;;5009118;28;20034;-82
2022/09/01 12:39:17;;;;;;;2.35;1.23;;;29.10;45.40;;;;;;5002933;28;20268;-80
2022/09/01 12:41:45;;;;;;;2.95;1.13;;;29.20;45.20;;;;;;5010933;28;20038;-83
2022/09/01 12:44:41;;;;;;;3.25;1.30;;;29.30;45.90;;;;;;5011016;28;20029;-83
2022/09/01 12:47:12;;;;;;;3.78;1.10;;;29.40;44.90;;;;;;4993776;28;20072;-85
2022/09/01 12:49:46;;;;;;;1.73;1.10;;;29.60;45.00;;;;;;4983585;28;20068;-85
2022/09/01 12:52:18;;;;;;;4.35;1.40;;;29.80;44.80;;;;;;4980935;28;20336;-79
2022/09/01 12:54:51;;;;;;;3.50;1.10;;;30.00;44.60;;;;;;4967194;28;20037;-86
2022/09/01 12:57:36;;;;;;;;;;;30.20;44.20;;;;;;4965068;28;20037;-89
2022/09/01 13:00:25;;;;;;;3.88;1.30;;;30.40;44.30;;;;;;4982861;28;19921;-89
2022/09/01 13:03:12;;;;;;;2.53;1.08;;;30.70;44.10;;;;;;5003003;28;20022;-88
2022/09/01 13:05:45;;;;;;;3.40;1.13;;;30.80;43.60;;;;;;4966917;28;20042;-88
2022/09/01 13:08:16;;;;;;;3.72;1.13;;;31.00;43.60;;;;;;4985516;28;20175;-88
2022/09/01 13:10:55;;;;;;;4.05;1.50;;;31.10;43.30;;;;;;4967647;28;20034;-88
2022/09/01 13:13:23;;;;;;;5.43;1.27;;;31.20;42.90;;;;;;4989900;28;20458;-85
2022/09/01 13:15:53;;;;;;;3.00;1.25;;;31.40;42.90;;;;;;4980747;28;20034;-85
2022/09/01 13:18:21;;;;;;;3.42;1.55;;;31.50;42.60;;;;;;4982807;28;20022;-87
2022/09/01 13:20:48;;;;;;;3.08;1.52;;;31.70;42.30;;;;;;4964030;28;20691;-87